Share

Onslow, IA (52321)

OLIN (KIAOLIN3) Elev 787 ft | 42.02 °N, 91.13 °W | Change Station

Current weather conditions updated 3 seconds ago

Overcast
Overcast
51.0 °F
Feels Like 51.0 °F
N
20.0
Wind Variable Wind from SSE
Gusts 20.0 mph
Sunrise 6:21 AM
Sunset 7:46 PM
Moon Waning Gibbous

Tomorrow is forecast to be nearly the same temperature as today.

Pressure 29.94 in
Visibility 10.0 miles
Clouds Overcast 8000 ft
Dew Point 33 °F
Humidity 50%
Rainfall 0.00 in
Snow Depth Not available.
UV 0.0 out of 16
Pollen 10.00 out of 12
Air Quality Not available.
Flu Activity Sporadic
METAR KMXO 170115Z AUTO 14017G24KT 10SM OVC080 11/M01 A2994 RMK AO2

More Conditions Fewer Conditions

Pressure 29.94 in
Visibility 10.0 miles
Clouds Overcast 8000 ft
Dew Point 33 °F
Humidity 50%
Rainfall 0.00 in
Snow Depth Not available.
UV 0.0 out of 16
Pollen 10.00 out of 12
Air Quality Not available.
Flu Activity Sporadic
METAR KMXO 170115Z AUTO 14017G24KT 10SM OVC080 11/M01 A2994 RMK AO2

More Conditions Fewer Conditions

10-Day Forecast

Almanac

Astronomy

Apr. 16, 2014 Rise Set
Actual Time 6:21 AM CDT 7:46 PM CDT
Civil Twilight 5:52 AM CDT 8:15 PM CDT
Nautical Twilight 5:17 AM CDT 8:50 PM CDT
Astronomical Twilight 4:40 AM CDT 9:28 PM CDT
Moon 9:31 PM CDT (4/16) 7:08 AM CDT (4/16)
Length of Visible Light 14h 23m
Length of Day
13h 24m
Tomorrow will be 2m 41s longer.
Waning Gibbous, 96% of the Moon is Illuminated
Today
Waning Gibbous
Apr 22
Last Quarter
Apr 29
New
May 6
First Quarter
May 14
Full

Today's Extremes

State Highs State Lows

Community

  • symphony in blue....
    symphony in blue....
  • Dawn Surprise
    Dawn Surprise
  • Yucca delight
    Yucca delight
  • Sunset inside of the Ocean
    Sunset inside of the Ocean
  • Lunar eclipse 15 April 2014
    Lunar eclipse 15 April 2014

WunderPhotos

Upload Photos

1,701,787 photos uploaded!

WunderBlogs® & News

Nearby

Snow Depth

Station Depth Elevation
No new snow has been reported.

Coastal Water Temperatures

Place Temperature
No Stations Reporting

Earthquake Activity

City Distance Mag. Time & Date
No recent earthquake activity has been reported nearby.
Minimum magnitude displayed is 2.5.

Nearby Weather Stations

Station Location Temp. Windchill Dew Point Humidity Wind Precip. Elev Updated Type
OLIN, Olin, IA 51.0 °F - 33 °F 50% SSE  at  20.0 mph 0.00 in / hr 787 ft 8:32 PM CDT Rapid Fire
Nightowl News (Middle School), Maquoketa, IA 46.2 °F 46 °F 26 °F 44% ESE  at  2.2 mph - / hr 715 ft 8:20 PM CDT Normal
South Lake, Farley, IA 48.7 °F 44 °F 31 °F 50% SE  at  11.0 mph 0.00 in / hr 1119 ft 8:32 PM CDT Rapid Fire

Show More Stations Show Fewer Stations

What do you think?

We're not finished. Please let us know what you like, what you don't like, and what you are still missing.